sensor_id;sensor_type;location;lat;lon;timestamp;P1;durP1;ratioP1;P2;durP2;ratioP2
78856;SDS011;68207;50.078;19.936;2023-06-14T00:00:57;8.70;;;6.40;;
78856;SDS011;68207;50.078;19.936;2023-06-14T00:03:22;8.50;;;5.90;;
78856;SDS011;68207;50.078;19.936;2023-06-14T00:05:49;7.30;;;5.80;;
78856;SDS011;68207;50.078;19.936;2023-06-14T00:08:14;8.20;;;6.00;;
78856;SDS011;68207;50.078;19.936;2023-06-14T00:10:40;7.40;;;5.70;;
78856;SDS011;68207;50.078;19.936;2023-06-14T00:13:07;7.30;;;5.80;;
78856;SDS011;68207;50.078;19.936;2023-06-14T00:15:32;9.60;;;6.10;;
78856;SDS011;68207;50.078;19.936;2023-06-14T00:17:58;8.60;;;6.20;;
78856;SDS011;68207;50.078;19.936;2023-06-14T00:20:29;9.00;;;6.30;;
78856;SDS011;68207;50.078;19.936;2023-06-14T00:22:55;9.00;;;5.50;;
78856;SDS011;68207;50.078;19.936;2023-06-14T00:25:24;7.30;;;5.50;;
78856;SDS011;68207;50.078;19.936;2023-06-14T00:27:50;9.90;;;5.80;;
78856;SDS011;68207;50.078;19.936;2023-06-14T00:30:15;8.40;;;5.90;;
78856;SDS011;68207;50.078;19.936;2023-06-14T00:32:40;9.20;;;6.30;;
78856;SDS011;68207;50.078;19.936;2023-06-14T00:35:07;9.20;;;6.30;;
78856;SDS011;68207;50.078;19.936;2023-06-14T00:37:33;9.20;;;6.50;;
78856;SDS011;68207;50.078;19.936;2023-06-14T00:39:58;9.90;;;6.40;;
78856;SDS011;68207;50.078;19.936;2023-06-14T00:42:26;9.00;;;6.50;;
78856;SDS011;68207;50.078;19.936;2023-06-14T00:44:52;8.40;;;6.00;;
78856;SDS011;68207;50.078;19.936;2023-06-14T00:47:17;10.20;;;6.30;;
78856;SDS011;68207;50.078;19.936;2023-06-14T00:49:42;8.50;;;5.80;;
78856;SDS011;68207;50.078;19.936;2023-06-14T00:52:08;7.60;;;5.90;;
78856;SDS011;68207;50.078;19.936;2023-06-14T00:54:37;10.30;;;6.40;;
78856;SDS011;68207;50.078;19.936;2023-06-14T00:57:02;9.60;;;7.00;;
78856;SDS011;68207;50.078;19.936;2023-06-14T00:59:27;8.30;;;5.80;;
78856;SDS011;68207;50.078;19.936;2023-06-14T01:01:52;8.40;;;6.50;;
78856;SDS011;68207;50.078;19.936;2023-06-14T01:04:18;9.10;;;6.20;;
78856;SDS011;68207;50.078;19.936;2023-06-14T01:09:12;10.00;;;6.00;;
78856;SDS011;68207;50.078;19.936;2023-06-14T01:11:47;10.70;;;6.20;;
78856;SDS011;68207;50.078;19.936;2023-06-14T01:14:13;9.50;;;6.40;;
78856;SDS011;68207;50.078;19.936;2023-06-14T01:16:39;9.10;;;6.20;;
78856;SDS011;68207;50.078;19.936;2023-06-14T01:19:05;10.10;;;6.00;;
78856;SDS011;68207;50.078;19.936;2023-06-14T01:21:31;12.10;;;7.00;;
78856;SDS011;68207;50.078;19.936;2023-06-14T01:24:01;9.90;;;6.60;;
78856;SDS011;68207;50.078;19.936;2023-06-14T01:26:28;12.30;;;6.20;;
78856;SDS011;68207;50.078;19.936;2023-06-14T01:28:54;9.70;;;6.90;;
78856;SDS011;68207;50.078;19.936;2023-06-14T01:31:23;18.90;;;6.70;;
78856;SDS011;68207;50.078;19.936;2023-06-14T01:33:49;27.50;;;7.50;;
78856;SDS011;68207;50.078;19.936;2023-06-14T01:36:16;15.70;;;7.10;;
78856;SDS011;68207;50.078;19.936;2023-06-14T01:38:41;12.20;;;6.50;;
78856;SDS011;68207;50.078;19.936;2023-06-14T01:41:07;15.00;;;6.80;;
78856;SDS011;68207;50.078;19.936;2023-06-14T01:43:32;10.40;;;6.60;;
78856;SDS011;68207;50.078;19.936;2023-06-14T01:45:59;11.10;;;7.10;;
78856;SDS011;68207;50.078;19.936;2023-06-14T01:48:25;11.30;;;7.00;;
78856;SDS011;68207;50.078;19.936;2023-06-14T01:50:51;9.40;;;7.10;;
78856;SDS011;68207;50.078;19.936;2023-06-14T01:53:17;9.40;;;6.40;;
78856;SDS011;68207;50.078;19.936;2023-06-14T01:55:42;10.20;;;7.10;;
78856;SDS011;68207;50.078;19.936;2023-06-14T01:58:09;10.20;;;6.90;;
78856;SDS011;68207;50.078;19.936;2023-06-14T02:00:35;10.20;;;6.70;;
78856;SDS011;68207;50.078;19.936;2023-06-14T02:03:00;10.80;;;7.10;;
78856;SDS011;68207;50.078;19.936;2023-06-14T02:05:26;10.80;;;6.70;;
78856;SDS011;68207;50.078;19.936;2023-06-14T02:07:51;10.50;;;6.70;;
78856;SDS011;68207;50.078;19.936;2023-06-14T02:10:16;10.60;;;6.40;;
78856;SDS011;68207;50.078;19.936;2023-06-14T02:12:42;8.90;;;6.40;;
78856;SDS011;68207;50.078;19.936;2023-06-14T02:15:08;10.30;;;6.80;;
78856;SDS011;68207;50.078;19.936;2023-06-14T02:17:33;10.40;;;6.40;;
78856;SDS011;68207;50.078;19.936;2023-06-14T02:19:59;9.70;;;6.50;;
78856;SDS011;68207;50.078;19.936;2023-06-14T02:22:24;11.60;;;6.60;;
78856;SDS011;68207;50.078;19.936;2023-06-14T02:24:49;10.80;;;6.90;;
78856;SDS011;68207;50.078;19.936;2023-06-14T02:27:15;10.20;;;6.60;;
78856;SDS011;68207;50.078;19.936;2023-06-14T02:29:40;11.30;;;6.90;;
78856;SDS011;68207;50.078;19.936;2023-06-14T02:32:06;10.40;;;6.70;;
78856;SDS011;68207;50.078;19.936;2023-06-14T02:34:32;9.50;;;6.40;;
78856;SDS011;68207;50.078;19.936;2023-06-14T02:36:57;10.60;;;7.20;;
78856;SDS011;68207;50.078;19.936;2023-06-14T02:39:23;9.90;;;6.10;;
78856;SDS011;68207;50.078;19.936;2023-06-14T02:41:49;11.80;;;6.90;;
78856;SDS011;68207;50.078;19.936;2023-06-14T02:44:15;12.60;;;6.70;;
78856;SDS011;68207;50.078;19.936;2023-06-14T02:46:42;11.70;;;6.70;;
78856;SDS011;68207;50.078;19.936;2023-06-14T02:49:08;10.10;;;7.20;;
78856;SDS011;68207;50.078;19.936;2023-06-14T02:51:33;10.60;;;6.40;;
78856;SDS011;68207;50.078;19.936;2023-06-14T02:53:59;11.20;;;6.30;;
78856;SDS011;68207;50.078;19.936;2023-06-14T02:56:24;9.20;;;6.40;;
78856;SDS011;68207;50.078;19.936;2023-06-14T03:01:16;10.00;;;6.40;;
78856;SDS011;68207;50.078;19.936;2023-06-14T03:03:42;12.20;;;6.50;;
78856;SDS011;68207;50.078;19.936;2023-06-14T03:06:07;8.70;;;5.70;;
78856;SDS011;68207;50.078;19.936;2023-06-14T03:08:33;9.30;;;6.40;;
78856;SDS011;68207;50.078;19.936;2023-06-14T03:11:03;8.00;;;5.30;;
78856;SDS011;68207;50.078;19.936;2023-06-14T03:13:30;8.90;;;5.80;;
78856;SDS011;68207;50.078;19.936;2023-06-14T03:15:57;8.30;;;5.50;;
78856;SDS011;68207;50.078;19.936;2023-06-14T03:18:22;9.60;;;5.60;;
78856;SDS011;68207;50.078;19.936;2023-06-14T03:20:47;6.80;;;5.30;;
78856;SDS011;68207;50.078;19.936;2023-06-14T03:23:12;9.70;;;6.40;;
78856;SDS011;68207;50.078;19.936;2023-06-14T03:25:38;8.60;;;5.60;;
78856;SDS011;68207;50.078;19.936;2023-06-14T03:28:05;10.50;;;5.60;;
78856;SDS011;68207;50.078;19.936;2023-06-14T03:30:31;6.90;;;5.20;;
78856;SDS011;68207;50.078;19.936;2023-06-14T03:32:56;6.70;;;5.00;;
78856;SDS011;68207;50.078;19.936;2023-06-14T03:35:22;7.50;;;5.30;;
78856;SDS011;68207;50.078;19.936;2023-06-14T03:37:47;9.50;;;5.40;;
78856;SDS011;68207;50.078;19.936;2023-06-14T03:40:13;12.00;;;5.30;;
78856;SDS011;68207;50.078;19.936;2023-06-14T03:42:39;8.10;;;4.90;;
78856;SDS011;68207;50.078;19.936;2023-06-14T03:45:04;6.20;;;4.50;;
78856;SDS011;68207;50.078;19.936;2023-06-14T03:47:30;7.50;;;4.70;;
78856;SDS011;68207;50.078;19.936;2023-06-14T03:49:55;7.00;;;4.50;;
78856;SDS011;68207;50.078;19.936;2023-06-14T03:52:20;6.20;;;4.20;;
78856;SDS011;68207;50.078;19.936;2023-06-14T03:54:47;6.80;;;4.60;;
78856;SDS011;68207;50.078;19.936;2023-06-14T03:57:12;7.80;;;4.60;;
78856;SDS011;68207;50.078;19.936;2023-06-14T03:59:37;7.40;;;4.70;;
78856;SDS011;68207;50.078;19.936;2023-06-14T04:02:03;7.30;;;4.70;;
78856;SDS011;68207;50.078;19.936;2023-06-14T04:04:28;10.20;;;5.20;;
78856;SDS011;68207;50.078;19.936;2023-06-14T04:06:54;8.20;;;5.40;;
78856;SDS011;68207;50.078;19.936;2023-06-14T04:09:19;7.60;;;5.40;;
78856;SDS011;68207;50.078;19.936;2023-06-14T04:11:44;8.00;;;5.90;;
78856;SDS011;68207;50.078;19.936;2023-06-14T04:14:09;9.30;;;6.20;;
78856;SDS011;68207;50.078;19.936;2023-06-14T04:16:35;10.10;;;6.00;;
78856;SDS011;68207;50.078;19.936;2023-06-14T04:19:00;7.70;;;5.80;;
78856;SDS011;68207;50.078;19.936;2023-06-14T04:21:25;10.70;;;6.20;;
78856;SDS011;68207;50.078;19.936;2023-06-14T04:23:52;9.50;;;6.00;;
78856;SDS011;68207;50.078;19.936;2023-06-14T04:26:20;8.50;;;6.20;;
78856;SDS011;68207;50.078;19.936;2023-06-14T04:28:46;10.40;;;6.20;;
78856;SDS011;68207;50.078;19.936;2023-06-14T04:31:11;11.50;;;6.10;;
78856;SDS011;68207;50.078;19.936;2023-06-14T04:33:37;8.20;;;5.60;;
78856;SDS011;68207;50.078;19.936;2023-06-14T04:36:09;6.70;;;5.40;;
78856;SDS011;68207;50.078;19.936;2023-06-14T04:40:59;7.70;;;5.20;;
78856;SDS011;68207;50.078;19.936;2023-06-14T04:43:26;10.80;;;6.30;;
78856;SDS011;68207;50.078;19.936;2023-06-14T04:45:52;9.70;;;6.70;;
78856;SDS011;68207;50.078;19.936;2023-06-14T04:48:19;16.40;;;7.50;;
78856;SDS011;68207;50.078;19.936;2023-06-14T04:50:45;11.80;;;7.30;;
78856;SDS011;68207;50.078;19.936;2023-06-14T04:53:10;12.20;;;7.70;;
78856;SDS011;68207;50.078;19.936;2023-06-14T04:55:36;10.60;;;7.40;;
78856;SDS011;68207;50.078;19.936;2023-06-14T04:58:02;14.30;;;8.00;;
78856;SDS011;68207;50.078;19.936;2023-06-14T05:00:28;13.80;;;8.40;;
78856;SDS011;68207;50.078;19.936;2023-06-14T05:02:53;13.40;;;8.80;;
78856;SDS011;68207;50.078;19.936;2023-06-14T05:05:18;13.00;;;9.00;;
78856;SDS011;68207;50.078;19.936;2023-06-14T05:07:44;15.50;;;9.50;;
78856;SDS011;68207;50.078;19.936;2023-06-14T05:10:10;16.60;;;9.40;;
78856;SDS011;68207;50.078;19.936;2023-06-14T05:12:35;15.40;;;8.40;;
78856;SDS011;68207;50.078;19.936;2023-06-14T05:15:01;15.90;;;9.10;;
78856;SDS011;68207;50.078;19.936;2023-06-14T05:17:26;13.80;;;9.30;;
78856;SDS011;68207;50.078;19.936;2023-06-14T05:19:53;17.00;;;9.40;;
78856;SDS011;68207;50.078;19.936;2023-06-14T05:22:18;13.90;;;9.10;;
78856;SDS011;68207;50.078;19.936;2023-06-14T05:24:43;14.00;;;8.30;;
78856;SDS011;68207;50.078;19.936;2023-06-14T05:27:08;12.30;;;8.20;;
78856;SDS011;68207;50.078;19.936;2023-06-14T05:29:33;14.90;;;8.40;;
78856;SDS011;68207;50.078;19.936;2023-06-14T05:31:58;13.50;;;8.60;;
78856;SDS011;68207;50.078;19.936;2023-06-14T05:34:24;12.70;;;8.30;;
78856;SDS011;68207;50.078;19.936;2023-06-14T05:36:49;14.90;;;8.70;;
78856;SDS011;68207;50.078;19.936;2023-06-14T05:39:14;16.00;;;9.10;;
78856;SDS011;68207;50.078;19.936;2023-06-14T05:41:39;13.00;;;8.60;;
78856;SDS011;68207;50.078;19.936;2023-06-14T05:44:05;17.70;;;8.70;;
78856;SDS011;68207;50.078;19.936;2023-06-14T05:46:30;13.40;;;8.50;;
78856;SDS011;68207;50.078;19.936;2023-06-14T05:48:55;14.50;;;9.30;;
78856;SDS011;68207;50.078;19.936;2023-06-14T05:51:21;15.20;;;8.80;;
78856;SDS011;68207;50.078;19.936;2023-06-14T05:53:47;20.20;;;9.20;;
78856;SDS011;68207;50.078;19.936;2023-06-14T05:56:12;12.40;;;8.40;;
78856;SDS011;68207;50.078;19.936;2023-06-14T05:58:38;15.10;;;9.50;;
78856;SDS011;68207;50.078;19.936;2023-06-14T06:01:03;17.40;;;9.40;;
78856;SDS011;68207;50.078;19.936;2023-06-14T06:03:28;14.20;;;8.30;;
78856;SDS011;68207;50.078;19.936;2023-06-14T06:05:54;13.50;;;7.80;;
78856;SDS011;68207;50.078;19.936;2023-06-14T06:08:19;12.00;;;7.80;;
78856;SDS011;68207;50.078;19.936;2023-06-14T06:10:45;13.10;;;7.60;;
78856;SDS011;68207;50.078;19.936;2023-06-14T06:13:11;10.60;;;7.00;;
78856;SDS011;68207;50.078;19.936;2023-06-14T06:15:36;7.30;;;5.40;;
78856;SDS011;68207;50.078;19.936;2023-06-14T06:18:01;8.80;;;5.60;;
78856;SDS011;68207;50.078;19.936;2023-06-14T06:20:26;12.00;;;5.90;;
78856;SDS011;68207;50.078;19.936;2023-06-14T06:22:53;7.40;;;4.40;;
78856;SDS011;68207;50.078;19.936;2023-06-14T06:25:19;8.30;;;3.70;;
78856;SDS011;68207;50.078;19.936;2023-06-14T06:27:44;6.30;;;3.60;;
78856;SDS011;68207;50.078;19.936;2023-06-14T06:30:09;7.50;;;3.70;;
78856;SDS011;68207;50.078;19.936;2023-06-14T06:32:35;5.50;;;3.40;;
78856;SDS011;68207;50.078;19.936;2023-06-14T06:35:00;5.00;;;3.20;;
78856;SDS011;68207;50.078;19.936;2023-06-14T06:37:26;6.80;;;3.50;;
78856;SDS011;68207;50.078;19.936;2023-06-14T06:39:51;6.80;;;3.80;;
78856;SDS011;68207;50.078;19.936;2023-06-14T06:42:16;4.60;;;3.30;;
78856;SDS011;68207;50.078;19.936;2023-06-14T06:44:41;4.70;;;3.60;;
78856;SDS011;68207;50.078;19.936;2023-06-14T06:47:07;5.00;;;3.80;;
78856;SDS011;68207;50.078;19.936;2023-06-14T06:49:32;5.00;;;3.30;;
78856;SDS011;68207;50.078;19.936;2023-06-14T06:52:04;5.90;;;3.30;;
78856;SDS011;68207;50.078;19.936;2023-06-14T06:54:29;5.60;;;3.10;;
78856;SDS011;68207;50.078;19.936;2023-06-14T06:56:55;3.90;;;2.80;;
78856;SDS011;68207;50.078;19.936;2023-06-14T06:59:20;3.80;;;2.80;;
78856;SDS011;68207;50.078;19.936;2023-06-14T07:01:46;3.30;;;2.40;;
78856;SDS011;68207;50.078;19.936;2023-06-14T07:04:11;3.50;;;2.00;;
78856;SDS011;68207;50.078;19.936;2023-06-14T07:06:37;3.70;;;2.10;;
78856;SDS011;68207;50.078;19.936;2023-06-14T07:09:02;4.70;;;2.10;;
78856;SDS011;68207;50.078;19.936;2023-06-14T07:11:29;3.60;;;2.00;;
78856;SDS011;68207;50.078;19.936;2023-06-14T07:13:54;3.30;;;1.70;;
78856;SDS011;68207;50.078;19.936;2023-06-14T07:16:20;2.30;;;1.80;;
78856;SDS011;68207;50.078;19.936;2023-06-14T07:18:45;2.30;;;1.80;;
78856;SDS011;68207;50.078;19.936;2023-06-14T07:21:10;3.50;;;2.00;;
78856;SDS011;68207;50.078;19.936;2023-06-14T07:23:35;3.50;;;2.00;;
78856;SDS011;68207;50.078;19.936;2023-06-14T07:26:01;5.60;;;2.10;;
78856;SDS011;68207;50.078;19.936;2023-06-14T07:28:26;3.30;;;2.20;;
78856;SDS011;68207;50.078;19.936;2023-06-14T07:30:51;2.70;;;2.00;;
78856;SDS011;68207;50.078;19.936;2023-06-14T07:33:16;2.90;;;2.10;;
78856;SDS011;68207;50.078;19.936;2023-06-14T07:35:41;3.20;;;2.60;;
78856;SDS011;68207;50.078;19.936;2023-06-14T07:38:07;5.50;;;2.80;;
78856;SDS011;68207;50.078;19.936;2023-06-14T07:40:32;5.60;;;2.70;;
78856;SDS011;68207;50.078;19.936;2023-06-14T07:42:57;4.50;;;2.70;;
78856;SDS011;68207;50.078;19.936;2023-06-14T07:45:22;4.90;;;2.80;;
78856;SDS011;68207;50.078;19.936;2023-06-14T07:47:48;6.00;;;2.40;;
78856;SDS011;68207;50.078;19.936;2023-06-14T07:50:13;4.90;;;2.50;;
78856;SDS011;68207;50.078;19.936;2023-06-14T07:52:38;4.30;;;2.60;;
78856;SDS011;68207;50.078;19.936;2023-06-14T07:55:03;6.80;;;3.40;;
78856;SDS011;68207;50.078;19.936;2023-06-14T07:57:29;3.70;;;2.50;;
78856;SDS011;68207;50.078;19.936;2023-06-14T07:59:54;4.90;;;2.40;;
78856;SDS011;68207;50.078;19.936;2023-06-14T08:02:19;3.90;;;2.20;;
78856;SDS011;68207;50.078;19.936;2023-06-14T08:04:44;3.30;;;2.10;;
78856;SDS011;68207;50.078;19.936;2023-06-14T08:07:10;5.10;;;2.50;;
78856;SDS011;68207;50.078;19.936;2023-06-14T08:09:35;4.40;;;2.50;;
78856;SDS011;68207;50.078;19.936;2023-06-14T08:12:03;5.60;;;2.30;;
78856;SDS011;68207;50.078;19.936;2023-06-14T08:14:28;3.80;;;2.30;;
78856;SDS011;68207;50.078;19.936;2023-06-14T08:16:54;3.90;;;2.60;;
78856;SDS011;68207;50.078;19.936;2023-06-14T08:19:20;3.40;;;2.70;;
78856;SDS011;68207;50.078;19.936;2023-06-14T08:21:45;3.40;;;2.40;;
78856;SDS011;68207;50.078;19.936;2023-06-14T08:24:11;3.60;;;2.40;;
78856;SDS011;68207;50.078;19.936;2023-06-14T08:29:03;4.70;;;2.40;;
78856;SDS011;68207;50.078;19.936;2023-06-14T08:31:28;3.60;;;2.40;;
78856;SDS011;68207;50.078;19.936;2023-06-14T08:33:53;3.60;;;2.70;;
78856;SDS011;68207;50.078;19.936;2023-06-14T08:36:19;3.70;;;3.10;;
78856;SDS011;68207;50.078;19.936;2023-06-14T08:38:44;4.30;;;3.30;;
78856;SDS011;68207;50.078;19.936;2023-06-14T08:41:10;4.90;;;3.30;;
78856;SDS011;68207;50.078;19.936;2023-06-14T08:43:36;4.40;;;3.00;;
78856;SDS011;68207;50.078;19.936;2023-06-14T08:46:03;5.80;;;3.00;;
78856;SDS011;68207;50.078;19.936;2023-06-14T08:48:29;3.70;;;3.20;;
78856;SDS011;68207;50.078;19.936;2023-06-14T08:50:57;5.40;;;3.30;;
78856;SDS011;68207;50.078;19.936;2023-06-14T08:53:30;4.00;;;3.20;;
78856;SDS011;68207;50.078;19.936;2023-06-14T08:55:56;5.00;;;3.70;;
78856;SDS011;68207;50.078;19.936;2023-06-14T08:58:22;3.80;;;3.20;;
78856;SDS011;68207;50.078;19.936;2023-06-14T09:00:49;4.90;;;3.60;;
78856;SDS011;68207;50.078;19.936;2023-06-14T09:03:15;4.10;;;3.60;;
78856;SDS011;68207;50.078;19.936;2023-06-14T09:05:40;5.50;;;4.00;;
78856;SDS011;68207;50.078;19.936;2023-06-14T09:08:05;6.10;;;4.00;;
78856;SDS011;68207;50.078;19.936;2023-06-14T09:10:31;6.50;;;4.60;;
78856;SDS011;68207;50.078;19.936;2023-06-14T09:13:00;6.90;;;4.30;;
78856;SDS011;68207;50.078;19.936;2023-06-14T09:15:26;7.30;;;4.20;;
78856;SDS011;68207;50.078;19.936;2023-06-14T09:17:51;7.50;;;4.90;;
78856;SDS011;68207;50.078;19.936;2023-06-14T09:20:16;6.80;;;4.10;;
78856;SDS011;68207;50.078;19.936;2023-06-14T09:22:43;6.00;;;4.30;;
78856;SDS011;68207;50.078;19.936;2023-06-14T09:25:09;6.30;;;4.40;;
78856;SDS011;68207;50.078;19.936;2023-06-14T09:27:34;6.70;;;4.30;;
78856;SDS011;68207;50.078;19.936;2023-06-14T09:30:01;5.30;;;4.30;;
78856;SDS011;68207;50.078;19.936;2023-06-14T09:32:26;4.50;;;3.90;;
78856;SDS011;68207;50.078;19.936;2023-06-14T09:34:52;6.20;;;4.10;;
78856;SDS011;68207;50.078;19.936;2023-06-14T09:37:27;7.40;;;4.70;;
78856;SDS011;68207;50.078;19.936;2023-06-14T09:39:53;6.60;;;4.80;;
78856;SDS011;68207;50.078;19.936;2023-06-14T09:42:18;6.60;;;4.70;;
78856;SDS011;68207;50.078;19.936;2023-06-14T09:44:47;5.90;;;4.60;;
78856;SDS011;68207;50.078;19.936;2023-06-14T09:47:14;5.80;;;4.50;;
78856;SDS011;68207;50.078;19.936;2023-06-14T09:52:05;6.70;;;4.70;;
78856;SDS011;68207;50.078;19.936;2023-06-14T09:54:30;6.10;;;4.60;;
78856;SDS011;68207;50.078;19.936;2023-06-14T09:56:56;5.10;;;4.50;;
78856;SDS011;68207;50.078;19.936;2023-06-14T09:59:23;6.50;;;5.00;;
78856;SDS011;68207;50.078;19.936;2023-06-14T10:01:54;9.20;;;4.90;;
78856;SDS011;68207;50.078;19.936;2023-06-14T10:04:22;6.50;;;4.70;;
78856;SDS011;68207;50.078;19.936;2023-06-14T10:06:48;9.40;;;5.60;;
78856;SDS011;68207;50.078;19.936;2023-06-14T10:09:15;8.70;;;5.70;;
78856;SDS011;68207;50.078;19.936;2023-06-14T10:11:40;7.90;;;5.40;;
78856;SDS011;68207;50.078;19.936;2023-06-14T10:14:08;6.50;;;5.30;;
78856;SDS011;68207;50.078;19.936;2023-06-14T10:16:36;6.80;;;5.00;;
78856;SDS011;68207;50.078;19.936;2023-06-14T10:19:06;6.30;;;5.10;;
78856;SDS011;68207;50.078;19.936;2023-06-14T10:21:41;6.70;;;5.60;;
78856;SDS011;68207;50.078;19.936;2023-06-14T10:24:08;6.20;;;5.30;;
78856;SDS011;68207;50.078;19.936;2023-06-14T10:26:35;8.60;;;6.20;;
78856;SDS011;68207;50.078;19.936;2023-06-14T10:29:14;7.50;;;5.90;;
78856;SDS011;68207;50.078;19.936;2023-06-14T10:31:41;6.90;;;5.70;;
78856;SDS011;68207;50.078;19.936;2023-06-14T10:34:07;8.50;;;6.50;;
78856;SDS011;68207;50.078;19.936;2023-06-14T10:36:32;7.10;;;5.80;;
78856;SDS011;68207;50.078;19.936;2023-06-14T10:39:16;8.00;;;5.80;;
78856;SDS011;68207;50.078;19.936;2023-06-14T10:41:42;8.80;;;6.10;;
78856;SDS011;68207;50.078;19.936;2023-06-14T10:46:40;6.90;;;5.40;;
78856;SDS011;68207;50.078;19.936;2023-06-14T10:49:10;10.10;;;6.40;;
78856;SDS011;68207;50.078;19.936;2023-06-14T10:51:42;9.00;;;5.50;;
78856;SDS011;68207;50.078;19.936;2023-06-14T10:54:14;6.70;;;5.60;;
78856;SDS011;68207;50.078;19.936;2023-06-14T10:56:52;7.00;;;5.40;;
78856;SDS011;68207;50.078;19.936;2023-06-14T10:59:19;6.70;;;5.50;;
78856;SDS011;68207;50.078;19.936;2023-06-14T11:04:12;5.50;;;4.80;;
78856;SDS011;68207;50.078;19.936;2023-06-14T11:06:47;7.30;;;5.60;;
78856;SDS011;68207;50.078;19.936;2023-06-14T11:11:38;7.20;;;5.40;;
78856;SDS011;68207;50.078;19.936;2023-06-14T11:14:06;7.10;;;5.70;;
78856;SDS011;68207;50.078;19.936;2023-06-14T11:16:31;6.80;;;4.80;;
78856;SDS011;68207;50.078;19.936;2023-06-14T11:18:59;6.30;;;4.60;;
78856;SDS011;68207;50.078;19.936;2023-06-14T11:21:25;5.10;;;4.20;;
78856;SDS011;68207;50.078;19.936;2023-06-14T11:23:55;6.60;;;4.90;;
78856;SDS011;68207;50.078;19.936;2023-06-14T11:26:27;6.40;;;5.00;;
78856;SDS011;68207;50.078;19.936;2023-06-14T11:29:01;6.10;;;4.90;;
78856;SDS011;68207;50.078;19.936;2023-06-14T11:31:27;6.50;;;5.10;;
78856;SDS011;68207;50.078;19.936;2023-06-14T11:33:55;5.90;;;4.80;;
78856;SDS011;68207;50.078;19.936;2023-06-14T11:36:21;7.60;;;4.70;;
78856;SDS011;68207;50.078;19.936;2023-06-14T11:38:47;8.10;;;4.90;;
78856;SDS011;68207;50.078;19.936;2023-06-14T11:41:12;5.40;;;4.70;;
78856;SDS011;68207;50.078;19.936;2023-06-14T11:43:37;6.70;;;5.40;;
78856;SDS011;68207;50.078;19.936;2023-06-14T11:46:04;6.80;;;5.40;;
78856;SDS011;68207;50.078;19.936;2023-06-14T11:53:20;7.50;;;5.90;;
78856;SDS011;68207;50.078;19.936;2023-06-14T11:55:45;6.40;;;5.70;;
78856;SDS011;68207;50.078;19.936;2023-06-14T11:58:12;10.20;;;5.80;;
78856;SDS011;68207;50.078;19.936;2023-06-14T12:00:38;8.40;;;5.90;;
78856;SDS011;68207;50.078;19.936;2023-06-14T12:03:03;7.50;;;5.30;;
78856;SDS011;68207;50.078;19.936;2023-06-14T12:05:28;6.10;;;5.00;;
78856;SDS011;68207;50.078;19.936;2023-06-14T12:08:00;5.40;;;4.50;;
78856;SDS011;68207;50.078;19.936;2023-06-14T12:10:28;6.20;;;4.90;;
78856;SDS011;68207;50.078;19.936;2023-06-14T12:12:58;8.20;;;4.80;;
78856;SDS011;68207;50.078;19.936;2023-06-14T12:15:24;6.80;;;5.00;;
78856;SDS011;68207;50.078;19.936;2023-06-14T12:17:49;5.90;;;4.70;;
78856;SDS011;68207;50.078;19.936;2023-06-14T12:20:15;8.10;;;4.90;;
78856;SDS011;68207;50.078;19.936;2023-06-14T12:22:53;6.10;;;4.60;;
78856;SDS011;68207;50.078;19.936;2023-06-14T12:25:28;7.00;;;4.40;;
78856;SDS011;68207;50.078;19.936;2023-06-14T12:27:54;6.20;;;4.50;;
78856;SDS011;68207;50.078;19.936;2023-06-14T12:30:19;6.70;;;4.70;;
78856;SDS011;68207;50.078;19.936;2023-06-14T12:32:45;6.40;;;4.40;;
78856;SDS011;68207;50.078;19.936;2023-06-14T12:35:10;5.80;;;4.10;;
78856;SDS011;68207;50.078;19.936;2023-06-14T12:37:35;6.50;;;4.40;;
78856;SDS011;68207;50.078;19.936;2023-06-14T12:40:01;5.00;;;4.10;;
78856;SDS011;68207;50.078;19.936;2023-06-14T12:42:26;5.60;;;4.10;;
78856;SDS011;68207;50.078;19.936;2023-06-14T12:44:52;5.70;;;3.50;;
78856;SDS011;68207;50.078;19.936;2023-06-14T12:47:17;4.70;;;3.60;;
78856;SDS011;68207;50.078;19.936;2023-06-14T12:49:42;5.40;;;4.20;;
78856;SDS011;68207;50.078;19.936;2023-06-14T12:52:07;6.20;;;3.90;;
78856;SDS011;68207;50.078;19.936;2023-06-14T12:54:33;6.90;;;4.00;;
78856;SDS011;68207;50.078;19.936;2023-06-14T12:56:58;6.20;;;3.60;;
78856;SDS011;68207;50.078;19.936;2023-06-14T12:59:23;5.70;;;3.80;;
78856;SDS011;68207;50.078;19.936;2023-06-14T13:01:48;6.60;;;4.20;;
78856;SDS011;68207;50.078;19.936;2023-06-14T13:04:15;6.60;;;4.00;;
78856;SDS011;68207;50.078;19.936;2023-06-14T13:06:40;6.40;;;3.80;;
78856;SDS011;68207;50.078;19.936;2023-06-14T13:09:06;4.80;;;3.50;;
78856;SDS011;68207;50.078;19.936;2023-06-14T13:11:31;4.60;;;3.50;;
78856;SDS011;68207;50.078;19.936;2023-06-14T13:13:56;5.20;;;4.00;;
78856;SDS011;68207;50.078;19.936;2023-06-14T13:16:21;5.00;;;3.70;;
78856;SDS011;68207;50.078;19.936;2023-06-14T13:18:47;6.20;;;3.30;;
78856;SDS011;68207;50.078;19.936;2023-06-14T13:21:12;4.00;;;3.60;;
78856;SDS011;68207;50.078;19.936;2023-06-14T13:23:37;5.30;;;3.60;;
78856;SDS011;68207;50.078;19.936;2023-06-14T13:26:02;9.10;;;3.60;;
78856;SDS011;68207;50.078;19.936;2023-06-14T13:28:28;5.00;;;3.60;;
78856;SDS011;68207;50.078;19.936;2023-06-14T13:30:53;5.00;;;3.90;;
78856;SDS011;68207;50.078;19.936;2023-06-14T13:33:20;5.40;;;3.80;;
78856;SDS011;68207;50.078;19.936;2023-06-14T13:35:45;7.20;;;3.90;;
78856;SDS011;68207;50.078;19.936;2023-06-14T13:38:11;7.20;;;4.00;;
78856;SDS011;68207;50.078;19.936;2023-06-14T13:40:36;4.20;;;3.10;;
78856;SDS011;68207;50.078;19.936;2023-06-14T13:43:01;6.30;;;3.90;;
78856;SDS011;68207;50.078;19.936;2023-06-14T13:45:26;4.20;;;3.30;;
78856;SDS011;68207;50.078;19.936;2023-06-14T13:47:52;4.80;;;3.50;;
78856;SDS011;68207;50.078;19.936;2023-06-14T13:50:17;5.30;;;3.30;;
78856;SDS011;68207;50.078;19.936;2023-06-14T13:52:42;4.60;;;3.20;;
78856;SDS011;68207;50.078;19.936;2023-06-14T13:55:07;4.60;;;3.50;;
78856;SDS011;68207;50.078;19.936;2023-06-14T13:57:33;5.00;;;3.40;;
78856;SDS011;68207;50.078;19.936;2023-06-14T13:59:58;5.70;;;3.90;;
78856;SDS011;68207;50.078;19.936;2023-06-14T14:02:26;5.00;;;3.70;;
78856;SDS011;68207;50.078;19.936;2023-06-14T14:04:51;4.80;;;3.80;;
78856;SDS011;68207;50.078;19.936;2023-06-14T14:07:18;7.40;;;3.30;;
78856;SDS011;68207;50.078;19.936;2023-06-14T14:09:44;5.20;;;3.40;;
78856;SDS011;68207;50.078;19.936;2023-06-14T14:12:09;5.00;;;3.50;;
78856;SDS011;68207;50.078;19.936;2023-06-14T14:14:35;4.50;;;3.60;;
78856;SDS011;68207;50.078;19.936;2023-06-14T14:17:00;4.60;;;3.50;;
78856;SDS011;68207;50.078;19.936;2023-06-14T14:19:25;4.70;;;3.80;;
78856;SDS011;68207;50.078;19.936;2023-06-14T14:21:50;3.80;;;3.30;;
78856;SDS011;68207;50.078;19.936;2023-06-14T14:24:18;5.40;;;3.50;;
78856;SDS011;68207;50.078;19.936;2023-06-14T14:26:43;5.40;;;3.20;;
78856;SDS011;68207;50.078;19.936;2023-06-14T14:29:08;5.20;;;3.30;;
78856;SDS011;68207;50.078;19.936;2023-06-14T14:31:36;4.40;;;3.30;;
78856;SDS011;68207;50.078;19.936;2023-06-14T14:34:01;4.30;;;3.40;;
78856;SDS011;68207;50.078;19.936;2023-06-14T14:36:27;5.10;;;3.60;;
78856;SDS011;68207;50.078;19.936;2023-06-14T14:38:52;5.20;;;3.60;;
78856;SDS011;68207;50.078;19.936;2023-06-14T14:41:17;6.40;;;3.60;;
78856;SDS011;68207;50.078;19.936;2023-06-14T14:43:43;5.50;;;3.80;;
78856;SDS011;68207;50.078;19.936;2023-06-14T14:46:08;5.70;;;3.50;;
78856;SDS011;68207;50.078;19.936;2023-06-14T14:48:33;5.50;;;3.50;;